sensor_id;sensor_type;location;lat;lon;timestamp;pressure;altitude;pressure_sealevel;temperature;humidity
55801;BME280;41730;51.960;20.158;2023-04-30T00:01:53;99936.02;;;13.93;66.42
55801;BME280;41730;51.960;20.158;2023-04-30T00:04:41;99939.23;;;13.89;66.53
55801;BME280;41730;51.960;20.158;2023-04-30T00:07:14;99940.78;;;13.77;67.32
55801;BME280;41730;51.960;20.158;2023-04-30T00:09:51;99938.70;;;13.75;67.29
55801;BME280;41730;51.960;20.158;2023-04-30T00:12:28;99941.60;;;13.64;67.55
55801;BME280;41730;51.960;20.158;2023-04-30T00:15:08;99935.58;;;13.57;67.99
55801;BME280;41730;51.960;20.158;2023-04-30T00:17:50;99935.64;;;13.62;67.97
55801;BME280;41730;51.960;20.158;2023-04-30T00:20:42;99938.52;;;13.73;67.99
55801;BME280;41730;51.960;20.158;2023-04-30T00:23:18;99938.31;;;13.79;67.81
55801;BME280;41730;51.960;20.158;2023-04-30T00:25:56;99937.08;;;13.77;67.78
55801;BME280;41730;51.960;20.158;2023-04-30T00:28:37;99941.17;;;13.78;67.99
55801;BME280;41730;51.960;20.158;2023-04-30T00:31:11;99941.88;;;13.75;68.29
55801;BME280;41730;51.960;20.158;2023-04-30T00:33:43;99939.88;;;13.90;68.04
55801;BME280;41730;51.960;20.158;2023-04-30T00:36:16;99941.80;;;14.01;67.67
55801;BME280;41730;51.960;20.158;2023-04-30T00:38:49;99943.94;;;14.02;67.88
55801;BME280;41730;51.960;20.158;2023-04-30T00:41:21;99945.07;;;13.77;68.52
55801;BME280;41730;51.960;20.158;2023-04-30T00:43:53;99948.63;;;13.81;68.74
55801;BME280;41730;51.960;20.158;2023-04-30T00:46:25;99952.16;;;13.99;68.29
55801;BME280;41730;51.960;20.158;2023-04-30T00:48:57;99956.14;;;13.98;68.22
55801;BME280;41730;51.960;20.158;2023-04-30T00:51:34;99959.73;;;13.94;68.61
55801;BME280;41730;51.960;20.158;2023-04-30T00:54:06;99963.11;;;13.86;68.93
55801;BME280;41730;51.960;20.158;2023-04-30T00:56:52;99968.38;;;13.67;69.57
55801;BME280;41730;51.960;20.158;2023-04-30T00:59:23;99970.67;;;13.57;69.92
55801;BME280;41730;51.960;20.158;2023-04-30T01:01:55;99970.67;;;13.49;70.31
55801;BME280;41730;51.960;20.158;2023-04-30T01:04:29;99970.15;;;13.35;71.12
55801;BME280;41730;51.960;20.158;2023-04-30T01:07:06;99971.04;;;13.31;71.17
55801;BME280;41730;51.960;20.158;2023-04-30T01:09:38;99969.95;;;13.35;71.56
55801;BME280;41730;51.960;20.158;2023-04-30T01:12:14;99973.84;;;13.33;71.55
55801;BME280;41730;51.960;20.158;2023-04-30T01:15:00;99975.39;;;13.24;72.28
55801;BME280;41730;51.960;20.158;2023-04-30T01:17:40;99979.41;;;13.28;72.35
55801;BME280;41730;51.960;20.158;2023-04-30T01:20:14;99983.43;;;13.47;71.56
55801;BME280;41730;51.960;20.158;2023-04-30T01:22:53;99982.75;;;13.63;70.99
55801;BME280;41730;51.960;20.158;2023-04-30T01:25:41;99987.98;;;13.63;71.13
55801;BME280;41730;51.960;20.158;2023-04-30T01:28:15;99989.27;;;13.66;70.93
55801;BME280;41730;51.960;20.158;2023-04-30T01:30:49;99999.04;;;13.39;71.77
55801;BME280;41730;51.960;20.158;2023-04-30T01:33:22;100001.11;;;13.21;72.83
55801;BME280;41730;51.960;20.158;2023-04-30T01:36:20;100006.35;;;13.03;73.48
55801;BME280;41730;51.960;20.158;2023-04-30T01:39:18;100007.27;;;12.88;74.03
55801;BME280;41730;51.960;20.158;2023-04-30T01:41:56;100008.75;;;12.69;74.46
55801;BME280;41730;51.960;20.158;2023-04-30T01:44:44;100015.35;;;12.62;74.67
55801;BME280;41730;51.960;20.158;2023-04-30T01:47:26;100016.48;;;12.72;74.02
55801;BME280;41730;51.960;20.158;2023-04-30T01:50:09;100020.74;;;12.66;74.47
55801;BME280;41730;51.960;20.158;2023-04-30T01:52:49;100025.44;;;12.61;74.49
55801;BME280;41730;51.960;20.158;2023-04-30T01:55:29;100031.59;;;12.37;75.12
55801;BME280;41730;51.960;20.158;2023-04-30T01:58:06;100038.11;;;12.20;75.42
55801;BME280;41730;51.960;20.158;2023-04-30T02:00:39;100041.27;;;12.20;75.67
55801;BME280;41730;51.960;20.158;2023-04-30T02:03:11;100042.32;;;12.12;75.20
55801;BME280;41730;51.960;20.158;2023-04-30T02:05:43;100044.52;;;11.92;76.07
55801;BME280;41730;51.960;20.158;2023-04-30T02:08:15;100042.93;;;11.78;76.70
55801;BME280;41730;51.960;20.158;2023-04-30T02:10:47;100047.23;;;11.77;76.47
55801;BME280;41730;51.960;20.158;2023-04-30T02:13:21;100055.36;;;11.84;76.32
55801;BME280;41730;51.960;20.158;2023-04-30T02:15:53;100052.77;;;11.86;75.94
55801;BME280;41730;51.960;20.158;2023-04-30T02:18:25;100058.75;;;11.69;75.82
55801;BME280;41730;51.960;20.158;2023-04-30T02:20:57;100065.30;;;11.63;75.96
55801;BME280;41730;51.960;20.158;2023-04-30T02:23:29;100065.23;;;11.56;76.27
55801;BME280;41730;51.960;20.158;2023-04-30T02:26:01;100068.84;;;11.49;75.96
55801;BME280;41730;51.960;20.158;2023-04-30T02:28:33;100078.49;;;11.47;75.60
55801;BME280;41730;51.960;20.158;2023-04-30T02:31:06;100079.10;;;11.34;75.74
55801;BME280;41730;51.960;20.158;2023-04-30T02:33:38;100088.14;;;11.25;75.92
55801;BME280;41730;51.960;20.158;2023-04-30T02:36:10;100087.64;;;11.13;75.75
55801;BME280;41730;51.960;20.158;2023-04-30T02:38:42;100090.09;;;11.21;75.46
55801;BME280;41730;51.960;20.158;2023-04-30T02:41:13;100093.90;;;11.30;74.81
55801;BME280;41730;51.960;20.158;2023-04-30T02:43:45;100095.80;;;11.34;74.09
55801;BME280;41730;51.960;20.158;2023-04-30T02:46:18;100098.98;;;11.20;74.27
55801;BME280;41730;51.960;20.158;2023-04-30T02:48:50;100099.76;;;11.11;74.31
55801;BME280;41730;51.960;20.158;2023-04-30T02:51:22;100104.23;;;11.04;74.25
55801;BME280;41730;51.960;20.158;2023-04-30T02:53:54;100102.34;;;10.95;74.51
55801;BME280;41730;51.960;20.158;2023-04-30T02:56:26;100104.23;;;10.94;74.41
55801;BME280;41730;51.960;20.158;2023-04-30T02:58:58;100112.29;;;11.06;74.02
55801;BME280;41730;51.960;20.158;2023-04-30T03:01:31;100114.10;;;11.07;73.62
55801;BME280;41730;51.960;20.158;2023-04-30T03:04:03;100118.67;;;11.15;73.43
55801;BME280;41730;51.960;20.158;2023-04-30T03:06:35;100121.34;;;11.31;72.45
55801;BME280;41730;51.960;20.158;2023-04-30T03:09:07;100122.46;;;11.48;71.98
55801;BME280;41730;51.960;20.158;2023-04-30T03:11:39;100124.48;;;11.39;71.66
55801;BME280;41730;51.960;20.158;2023-04-30T03:14:12;100130.16;;;11.14;72.28
55801;BME280;41730;51.960;20.158;2023-04-30T03:16:43;100134.55;;;10.96;72.94
55801;BME280;41730;51.960;20.158;2023-04-30T03:19:15;100147.12;;;10.91;73.09
55801;BME280;41730;51.960;20.158;2023-04-30T03:21:52;100151.64;;;10.78;73.43
55801;BME280;41730;51.960;20.158;2023-04-30T03:24:24;100153.98;;;10.86;73.36
55801;BME280;41730;51.960;20.158;2023-04-30T03:26:56;100154.81;;;10.95;72.92
55801;BME280;41730;51.960;20.158;2023-04-30T03:29:28;100156.05;;;10.93;72.92
55801;BME280;41730;51.960;20.158;2023-04-30T03:32:04;100158.24;;;11.00;72.81
55801;BME280;41730;51.960;20.158;2023-04-30T03:34:35;100157.85;;;11.04;72.39
55801;BME280;41730;51.960;20.158;2023-04-30T03:37:07;100162.50;;;11.14;71.94
55801;BME280;41730;51.960;20.158;2023-04-30T03:39:38;100169.71;;;11.17;71.71
55801;BME280;41730;51.960;20.158;2023-04-30T03:42:10;100171.46;;;11.07;71.58
55801;BME280;41730;51.960;20.158;2023-04-30T03:44:42;100176.30;;;11.08;71.48
55801;BME280;41730;51.960;20.158;2023-04-30T03:47:14;100189.02;;;10.99;71.56
55801;BME280;41730;51.960;20.158;2023-04-30T03:49:48;100192.31;;;10.85;71.92
55801;BME280;41730;51.960;20.158;2023-04-30T03:52:41;100178.31;;;10.82;71.64
55801;BME280;41730;51.960;20.158;2023-04-30T03:55:50;100188.23;;;10.98;71.10
55801;BME280;41730;51.960;20.158;2023-04-30T03:58:26;100197.21;;;11.20;70.34
55801;BME280;41730;51.960;20.158;2023-04-30T04:00:57;100200.94;;;11.05;70.46
55801;BME280;41730;51.960;20.158;2023-04-30T04:03:29;100207.23;;;11.06;70.50
55801;BME280;41730;51.960;20.158;2023-04-30T04:06:01;100209.99;;;11.12;70.00
55801;BME280;41730;51.960;20.158;2023-04-30T04:08:34;100217.79;;;11.03;70.05
55801;BME280;41730;51.960;20.158;2023-04-30T04:11:08;100216.70;;;10.99;70.14
55801;BME280;41730;51.960;20.158;2023-04-30T04:13:39;100218.84;;;11.19;69.61
55801;BME280;41730;51.960;20.158;2023-04-30T04:16:11;100214.38;;;11.35;68.61
55801;BME280;41730;51.960;20.158;2023-04-30T04:18:44;100222.48;;;11.24;68.80
55801;BME280;41730;51.960;20.158;2023-04-30T04:21:17;100229.18;;;11.01;69.19
55801;BME280;41730;51.960;20.158;2023-04-30T04:23:48;100230.35;;;10.92;69.65
55801;BME280;41730;51.960;20.158;2023-04-30T04:26:20;100231.80;;;10.99;69.29
55801;BME280;41730;51.960;20.158;2023-04-30T04:28:55;100238.73;;;11.06;68.99
55801;BME280;41730;51.960;20.158;2023-04-30T04:31:26;100238.55;;;11.13;68.60
55801;BME280;41730;51.960;20.158;2023-04-30T04:34:01;100240.09;;;10.97;68.88
55801;BME280;41730;51.960;20.158;2023-04-30T04:36:34;100243.64;;;11.13;68.55
55801;BME280;41730;51.960;20.158;2023-04-30T04:39:06;100248.66;;;11.05;68.47
55801;BME280;41730;51.960;20.158;2023-04-30T04:41:37;100251.98;;;10.97;68.78
55801;BME280;41730;51.960;20.158;2023-04-30T04:44:10;100261.53;;;10.96;68.83
55801;BME280;41730;51.960;20.158;2023-04-30T04:46:42;100263.61;;;11.00;68.53
55801;BME280;41730;51.960;20.158;2023-04-30T04:49:16;100268.02;;;11.03;68.40
55801;BME280;41730;51.960;20.158;2023-04-30T04:51:48;100273.11;;;11.17;68.05
55801;BME280;41730;51.960;20.158;2023-04-30T04:54:20;100276.33;;;11.18;67.76
55801;BME280;41730;51.960;20.158;2023-04-30T04:56:51;100281.63;;;11.18;67.60
55801;BME280;41730;51.960;20.158;2023-04-30T04:59:23;100282.41;;;11.19;67.50
55801;BME280;41730;51.960;20.158;2023-04-30T05:01:55;100288.92;;;11.21;67.25
55801;BME280;41730;51.960;20.158;2023-04-30T05:04:27;100290.27;;;11.09;67.73
55801;BME280;41730;51.960;20.158;2023-04-30T05:06:59;100297.41;;;10.95;67.98
55801;BME280;41730;51.960;20.158;2023-04-30T05:09:31;100302.48;;;11.00;67.87
55801;BME280;41730;51.960;20.158;2023-04-30T05:12:04;100312.48;;;10.97;67.96
55801;BME280;41730;51.960;20.158;2023-04-30T05:14:36;100314.71;;;11.10;67.64
55801;BME280;41730;51.960;20.158;2023-04-30T05:17:07;100317.42;;;11.26;67.38
55801;BME280;41730;51.960;20.158;2023-04-30T05:19:39;100322.30;;;11.25;67.09
55801;BME280;41730;51.960;20.158;2023-04-30T05:22:11;100331.89;;;11.21;67.11
55801;BME280;41730;51.960;20.158;2023-04-30T05:24:43;100332.55;;;11.30;66.96
55801;BME280;41730;51.960;20.158;2023-04-30T05:27:14;100339.75;;;11.37;66.62
55801;BME280;41730;51.960;20.158;2023-04-30T05:29:46;100338.44;;;11.31;66.80
55801;BME280;41730;51.960;20.158;2023-04-30T05:32:17;100345.86;;;11.22;66.95
55801;BME280;41730;51.960;20.158;2023-04-30T05:34:49;100346.06;;;11.30;66.59
55801;BME280;41730;51.960;20.158;2023-04-30T05:37:21;100349.67;;;11.44;67.81
55801;BME280;41730;51.960;20.158;2023-04-30T05:39:52;100353.19;;;11.71;68.11
55801;BME280;41730;51.960;20.158;2023-04-30T05:42:24;100355.38;;;12.03;67.80
55801;BME280;41730;51.960;20.158;2023-04-30T05:44:56;100350.30;;;12.21;66.64
55801;BME280;41730;51.960;20.158;2023-04-30T05:47:28;100358.36;;;12.39;65.60
55801;BME280;41730;51.960;20.158;2023-04-30T05:50:00;100356.16;;;12.70;64.87
55801;BME280;41730;51.960;20.158;2023-04-30T05:52:32;100363.30;;;12.91;63.65
55801;BME280;41730;51.960;20.158;2023-04-30T05:55:03;100364.96;;;13.13;62.98
55801;BME280;41730;51.960;20.158;2023-04-30T05:57:35;100366.25;;;13.32;62.54
55801;BME280;41730;51.960;20.158;2023-04-30T06:00:11;100368.29;;;13.62;60.83
55801;BME280;41730;51.960;20.158;2023-04-30T06:02:42;100367.34;;;13.64;60.04
55801;BME280;41730;51.960;20.158;2023-04-30T06:05:14;100372.05;;;13.76;60.26
55801;BME280;41730;51.960;20.158;2023-04-30T06:07:46;100374.96;;;13.89;59.96
55801;BME280;41730;51.960;20.158;2023-04-30T06:10:17;100376.45;;;14.07;59.39
55801;BME280;41730;51.960;20.158;2023-04-30T06:12:50;100375.77;;;14.26;59.28
55801;BME280;41730;51.960;20.158;2023-04-30T06:15:22;100376.95;;;14.49;58.29
55801;BME280;41730;51.960;20.158;2023-04-30T06:17:54;100379.10;;;14.69;57.82
55801;BME280;41730;51.960;20.158;2023-04-30T06:20:26;100381.27;;;14.83;57.19
55801;BME280;41730;51.960;20.158;2023-04-30T06:22:58;100385.10;;;15.03;56.07
55801;BME280;41730;51.960;20.158;2023-04-30T06:25:32;100383.92;;;15.13;55.55
55801;BME280;41730;51.960;20.158;2023-04-30T06:28:03;100384.30;;;15.22;55.52
55801;BME280;41730;51.960;20.158;2023-04-30T06:30:37;100386.66;;;15.36;54.87
55801;BME280;41730;51.960;20.158;2023-04-30T06:33:09;100390.92;;;15.37;52.76
55801;BME280;41730;51.960;20.158;2023-04-30T06:35:40;100387.93;;;15.32;51.95
55801;BME280;41730;51.960;20.158;2023-04-30T06:38:12;100387.91;;;15.30;52.27
55801;BME280;41730;51.960;20.158;2023-04-30T06:40:44;100387.69;;;15.27;52.25
55801;BME280;41730;51.960;20.158;2023-04-30T06:43:16;100389.45;;;15.29;50.42
55801;BME280;41730;51.960;20.158;2023-04-30T06:45:47;100394.70;;;15.23;50.23
55801;BME280;41730;51.960;20.158;2023-04-30T06:48:19;100394.04;;;15.09;49.82
55801;BME280;41730;51.960;20.158;2023-04-30T06:50:51;100397.73;;;15.06;49.93
55801;BME280;41730;51.960;20.158;2023-04-30T06:53:23;100395.46;;;15.30;48.66
55801;BME280;41730;51.960;20.158;2023-04-30T06:55:54;100395.39;;;15.21;49.23
55801;BME280;41730;51.960;20.158;2023-04-30T06:58:26;100396.15;;;15.13;50.03
55801;BME280;41730;51.960;20.158;2023-04-30T07:00:59;100403.76;;;15.39;49.66
55801;BME280;41730;51.960;20.158;2023-04-30T07:03:31;100411.55;;;15.78;48.39
55801;BME280;41730;51.960;20.158;2023-04-30T07:06:05;100412.34;;;15.88;48.06
55801;BME280;41730;51.960;20.158;2023-04-30T07:08:37;100414.23;;;15.92;47.54
55801;BME280;41730;51.960;20.158;2023-04-30T07:11:10;100410.98;;;15.88;47.09
55801;BME280;41730;51.960;20.158;2023-04-30T07:13:43;100406.70;;;15.76;47.36
55801;BME280;41730;51.960;20.158;2023-04-30T07:16:15;100407.88;;;15.73;47.27
55801;BME280;41730;51.960;20.158;2023-04-30T07:18:48;100414.04;;;15.77;46.67
55801;BME280;41730;51.960;20.158;2023-04-30T07:21:21;100413.04;;;15.81;45.81
55801;BME280;41730;51.960;20.158;2023-04-30T07:23:54;100417.16;;;15.77;46.30
55801;BME280;41730;51.960;20.158;2023-04-30T07:26:26;100409.92;;;15.77;46.13
55801;BME280;41730;51.960;20.158;2023-04-30T07:28:58;100420.77;;;15.73;45.18
55801;BME280;41730;51.960;20.158;2023-04-30T07:31:31;100416.27;;;15.77;45.49
55801;BME280;41730;51.960;20.158;2023-04-30T07:34:03;100419.85;;;15.89;45.32
55801;BME280;41730;51.960;20.158;2023-04-30T07:36:35;100419.53;;;15.87;45.56
55801;BME280;41730;51.960;20.158;2023-04-30T07:39:07;100418.20;;;15.98;45.19
55801;BME280;41730;51.960;20.158;2023-04-30T07:41:44;100420.36;;;16.15;44.21
55801;BME280;41730;51.960;20.158;2023-04-30T07:44:16;100427.85;;;15.92;43.70
55801;BME280;41730;51.960;20.158;2023-04-30T07:46:48;100426.13;;;15.81;43.76
55801;BME280;41730;51.960;20.158;2023-04-30T07:49:21;100428.50;;;15.89;43.91
55801;BME280;41730;51.960;20.158;2023-04-30T07:51:52;100428.81;;;15.96;43.45
55801;BME280;41730;51.960;20.158;2023-04-30T07:54:25;100433.27;;;15.91;43.33
55801;BME280;41730;51.960;20.158;2023-04-30T07:56:57;100430.97;;;15.92;43.59
55801;BME280;41730;51.960;20.158;2023-04-30T07:59:36;100437.23;;;15.92;43.82
55801;BME280;41730;51.960;20.158;2023-04-30T08:02:08;100439.89;;;16.02;43.15
55801;BME280;41730;51.960;20.158;2023-04-30T08:04:40;100439.30;;;16.03;42.96
55801;BME280;41730;51.960;20.158;2023-04-30T08:07:12;100432.69;;;16.24;42.45
55801;BME280;41730;51.960;20.158;2023-04-30T08:09:45;100439.46;;;16.43;42.14
55801;BME280;41730;51.960;20.158;2023-04-30T08:12:18;100440.94;;;16.47;41.53
55801;BME280;41730;51.960;20.158;2023-04-30T08:14:51;100444.85;;;16.38;41.70
55801;BME280;41730;51.960;20.158;2023-04-30T08:17:31;100445.48;;;16.30;42.55
55801;BME280;41730;51.960;20.158;2023-04-30T08:20:04;100446.81;;;16.31;41.85
55801;BME280;41730;51.960;20.158;2023-04-30T08:22:36;100452.64;;;16.35;41.64
55801;BME280;41730;51.960;20.158;2023-04-30T08:25:11;100453.91;;;16.26;41.83
55801;BME280;41730;51.960;20.158;2023-04-30T08:27:42;100461.42;;;16.36;42.14
55801;BME280;41730;51.960;20.158;2023-04-30T08:30:15;100453.05;;;16.51;41.40
55801;BME280;41730;51.960;20.158;2023-04-30T08:32:47;100457.27;;;16.41;41.21
55801;BME280;41730;51.960;20.158;2023-04-30T08:35:19;100460.13;;;16.40;41.36
55801;BME280;41730;51.960;20.158;2023-04-30T08:37:51;100460.46;;;16.47;39.92
55801;BME280;41730;51.960;20.158;2023-04-30T08:40:25;100455.94;;;16.32;40.15
55801;BME280;41730;51.960;20.158;2023-04-30T08:43:18;100459.52;;;16.32;40.29
55801;BME280;41730;51.960;20.158;2023-04-30T08:45:51;100462.09;;;16.29;39.91
55801;BME280;41730;51.960;20.158;2023-04-30T08:48:25;100468.26;;;16.29;38.99
55801;BME280;41730;51.960;20.158;2023-04-30T08:51:00;100471.13;;;16.15;38.21
55801;BME280;41730;51.960;20.158;2023-04-30T08:53:33;100465.20;;;15.90;37.70
55801;BME280;41730;51.960;20.158;2023-04-30T08:56:07;100472.61;;;15.78;38.24
55801;BME280;41730;51.960;20.158;2023-04-30T08:58:38;100468.08;;;15.79;37.54
55801;BME280;41730;51.960;20.158;2023-04-30T09:01:10;100475.52;;;15.64;38.33
55801;BME280;41730;51.960;20.158;2023-04-30T09:03:43;100476.10;;;15.66;37.74
55801;BME280;41730;51.960;20.158;2023-04-30T09:06:17;100479.10;;;15.55;36.65
55801;BME280;41730;51.960;20.158;2023-04-30T09:08:49;100478.68;;;15.36;35.56
55801;BME280;41730;51.960;20.158;2023-04-30T09:11:24;100477.17;;;15.13;35.72
55801;BME280;41730;51.960;20.158;2023-04-30T09:13:59;100477.54;;;15.08;35.95
55801;BME280;41730;51.960;20.158;2023-04-30T09:16:46;100479.13;;;15.17;35.22
55801;BME280;41730;51.960;20.158;2023-04-30T09:19:25;100481.14;;;15.24;34.39
55801;BME280;41730;51.960;20.158;2023-04-30T09:21:57;100480.65;;;15.27;34.71
55801;BME280;41730;51.960;20.158;2023-04-30T09:24:46;100480.79;;;15.27;35.26
55801;BME280;41730;51.960;20.158;2023-04-30T09:27:20;100483.44;;;15.27;34.87
55801;BME280;41730;51.960;20.158;2023-04-30T09:29:52;100487.30;;;15.29;34.92
55801;BME280;41730;51.960;20.158;2023-04-30T09:32:26;100489.52;;;15.48;34.02
55801;BME280;41730;51.960;20.158;2023-04-30T09:34:59;100484.57;;;15.57;33.91
55801;BME280;41730;51.960;20.158;2023-04-30T09:37:38;100484.12;;;15.54;33.86
55801;BME280;41730;51.960;20.158;2023-04-30T09:40:11;100488.22;;;15.50;34.73
55801;BME280;41730;51.960;20.158;2023-04-30T09:42:58;100495.38;;;15.62;34.55
55801;BME280;41730;51.960;20.158;2023-04-30T09:45:42;100497.46;;;15.71;34.13
55801;BME280;41730;51.960;20.158;2023-04-30T09:48:17;100496.02;;;15.93;33.97
55801;BME280;41730;51.960;20.158;2023-04-30T09:50:52;100497.41;;;16.09;33.54
55801;BME280;41730;51.960;20.158;2023-04-30T09:53:27;100498.57;;;16.15;32.79
55801;BME280;41730;51.960;20.158;2023-04-30T09:55:59;100496.44;;;16.19;32.87
55801;BME280;41730;51.960;20.158;2023-04-30T09:58:34;100491.81;;;16.29;33.17
55801;BME280;41730;51.960;20.158;2023-04-30T10:01:08;100493.65;;;16.35;33.08
55801;BME280;41730;51.960;20.158;2023-04-30T10:03:43;100491.97;;;16.26;31.69
55801;BME280;41730;51.960;20.158;2023-04-30T10:06:16;100494.55;;;16.14;32.23
55801;BME280;41730;51.960;20.158;2023-04-30T10:08:52;100490.23;;;16.19;32.63
55801;BME280;41730;51.960;20.158;2023-04-30T10:11:27;100485.36;;;16.06;30.69
55801;BME280;41730;51.960;20.158;2023-04-30T10:14:02;100487.73;;;15.97;31.51
55801;BME280;41730;51.960;20.158;2023-04-30T10:16:39;100487.41;;;15.99;30.80
55801;BME280;41730;51.960;20.158;2023-04-30T10:19:16;100485.82;;;15.89;30.38
55801;BME280;41730;51.960;20.158;2023-04-30T10:21:50;100486.50;;;15.82;31.49
55801;BME280;41730;51.960;20.158;2023-04-30T10:24:22;100487.77;;;15.73;32.13
55801;BME280;41730;51.960;20.158;2023-04-30T10:26:55;100486.84;;;15.66;32.61
55801;BME280;41730;51.960;20.158;2023-04-30T10:29:28;100485.38;;;15.83;31.97
55801;BME280;41730;51.960;20.158;2023-04-30T10:32:00;100489.75;;;15.83;32.92
55801;BME280;41730;51.960;20.158;2023-04-30T10:34:40;100487.58;;;15.89;33.26
55801;BME280;41730;51.960;20.158;2023-04-30T10:37:19;100486.13;;;15.89;33.48
55801;BME280;41730;51.960;20.158;2023-04-30T10:39:52;100481.14;;;16.02;33.61
55801;BME280;41730;51.960;20.158;2023-04-30T10:42:25;100488.73;;;16.35;33.48
55801;BME280;41730;51.960;20.158;2023-04-30T10:44:57;100494.61;;;16.31;33.67
55801;BME280;41730;51.960;20.158;2023-04-30T10:47:30;100486.76;;;16.26;33.95
55801;BME280;41730;51.960;20.158;2023-04-30T10:50:06;100488.28;;;16.19;33.64
55801;BME280;41730;51.960;20.158;2023-04-30T10:52:39;100489.09;;;15.93;33.46
55801;BME280;41730;51.960;20.158;2023-04-30T10:55:15;100490.11;;;15.74;33.48
55801;BME280;41730;51.960;20.158;2023-04-30T10:57:48;100486.30;;;15.50;33.94
55801;BME280;41730;51.960;20.158;2023-04-30T11:00:29;100489.27;;;15.54;34.26
55801;BME280;41730;51.960;20.158;2023-04-30T11:03:04;100489.42;;;15.61;34.74
55801;BME280;41730;51.960;20.158;2023-04-30T11:05:38;100489.29;;;15.82;34.47
55801;BME280;41730;51.960;20.158;2023-04-30T11:08:13;100494.52;;;15.88;33.62
55801;BME280;41730;51.960;20.158;2023-04-30T11:10:58;100482.44;;;15.69;33.88
55801;BME280;41730;51.960;20.158;2023-04-30T11:13:39;100481.89;;;15.68;34.13
55801;BME280;41730;51.960;20.158;2023-04-30T11:16:13;100482.23;;;15.66;33.42
55801;BME280;41730;51.960;20.158;2023-04-30T11:18:46;100480.52;;;15.55;33.10
55801;BME280;41730;51.960;20.158;2023-04-30T11:21:21;100484.34;;;15.43;33.30
55801;BME280;41730;51.960;20.158;2023-04-30T11:23:51;100489.75;;;15.29;32.85
55801;BME280;41730;51.960;20.158;2023-04-30T11:26:26;100488.80;;;15.27;33.08
55801;BME280;41730;51.960;20.158;2023-04-30T11:28:58;100488.30;;;15.26;33.37
55801;BME280;41730;51.960;20.158;2023-04-30T11:31:35;100487.22;;;15.24;33.88
55801;BME280;41730;51.960;20.158;2023-04-30T11:34:08;100494.77;;;15.27;34.26
55801;BME280;41730;51.960;20.158;2023-04-30T11:36:41;100496.44;;;15.33;34.03
55801;BME280;41730;51.960;20.158;2023-04-30T11:39:17;100495.57;;;15.42;34.29
55801;BME280;41730;51.960;20.158;2023-04-30T11:41:49;100502.33;;;15.48;34.28
55801;BME280;41730;51.960;20.158;2023-04-30T11:44:26;100505.74;;;15.53;34.55
55801;BME280;41730;51.960;20.158;2023-04-30T11:46:58;100503.02;;;15.63;33.98
55801;BME280;41730;51.960;20.158;2023-04-30T11:49:30;100506.83;;;15.61;34.09
55801;BME280;41730;51.960;20.158;2023-04-30T11:52:02;100509.04;;;15.58;33.86
55801;BME280;41730;51.960;20.158;2023-04-30T11:54:37;100506.15;;;15.42;34.51
55801;BME280;41730;51.960;20.158;2023-04-30T11:57:09;100502.58;;;15.39;34.62
55801;BME280;41730;51.960;20.158;2023-04-30T11:59:44;100500.08;;;15.36;34.11
55801;BME280;41730;51.960;20.158;2023-04-30T12:02:17;100495.24;;;15.26;34.29
55801;BME280;41730;51.960;20.158;2023-04-30T12:04:49;100506.82;;;15.27;34.39
55801;BME280;41730;51.960;20.158;2023-04-30T12:07:21;100506.41;;;15.14;34.45
55801;BME280;41730;51.960;20.158;2023-04-30T12:09:56;100507.56;;;15.15;34.85
55801;BME280;41730;51.960;20.158;2023-04-30T12:12:30;100504.33;;;15.27;34.51
55801;BME280;41730;51.960;20.158;2023-04-30T12:15:11;100504.13;;;15.20;34.95
55801;BME280;41730;51.960;20.158;2023-04-30T12:17:43;100500.50;;;15.31;34.77
55801;BME280;41730;51.960;20.158;2023-04-30T12:20:16;100504.45;;;15.47;34.63
55801;BME280;41730;51.960;20.158;2023-04-30T12:22:48;100499.33;;;15.47;34.49
55801;BME280;41730;51.960;20.158;2023-04-30T12:25:21;100498.39;;;15.44;34.80
55801;BME280;41730;51.960;20.158;2023-04-30T12:27:53;100502.48;;;15.43;35.24
55801;BME280;41730;51.960;20.158;2023-04-30T12:30:26;100495.33;;;15.55;34.96
55801;BME280;41730;51.960;20.158;2023-04-30T12:33:01;100494.20;;;15.50;35.12
55801;BME280;41730;51.960;20.158;2023-04-30T12:35:33;100494.23;;;15.55;35.48
55801;BME280;41730;51.960;20.158;2023-04-30T12:38:05;100491.95;;;15.70;35.53
55801;BME280;41730;51.960;20.158;2023-04-30T12:40:38;100488.84;;;15.76;35.19
55801;BME280;41730;51.960;20.158;2023-04-30T12:43:13;100491.34;;;15.88;35.20
55801;BME280;41730;51.960;20.158;2023-04-30T12:45:49;100495.77;;;16.00;34.71
55801;BME280;41730;51.960;20.158;2023-04-30T12:48:23;100488.02;;;16.06;34.46
55801;BME280;41730;51.960;20.158;2023-04-30T12:50:58;100493.14;;;16.06;33.84
55801;BME280;41730;51.960;20.158;2023-04-30T12:53:30;100492.48;;;15.98;33.60
55801;BME280;41730;51.960;20.158;2023-04-30T12:56:12;100490.34;;;15.88;33.78
55801;BME280;41730;51.960;20.158;2023-04-30T12:58:46;100490.52;;;15.81;34.26
55801;BME280;41730;51.960;20.158;2023-04-30T13:01:22;100492.31;;;15.80;34.75
55801;BME280;41730;51.960;20.158;2023-04-30T13:03:56;100492.33;;;15.91;34.12
55801;BME280;41730;51.960;20.158;2023-04-30T13:06:28;100494.39;;;15.86;33.90
55801;BME280;41730;51.960;20.158;2023-04-30T13:09:02;100490.57;;;15.85;34.02
55801;BME280;41730;51.960;20.158;2023-04-30T13:11:34;100489.94;;;15.68;34.54
55801;BME280;41730;51.960;20.158;2023-04-30T13:14:06;100485.36;;;15.83;34.75
55801;BME280;41730;51.960;20.158;2023-04-30T13:16:40;100484.11;;;16.01;34.61